sensor_id;sensor_type;location;lat;lon;timestamp;pressure;altitude;pressure_sealevel;temperature;humidity
9419;BME280;4748;50.802;7.132;2023-04-19T00:00:15;101927.13;;;13.35;100.00
9419;BME280;4748;50.802;7.132;2023-04-19T00:02:40;101931.28;;;13.25;100.00
9419;BME280;4748;50.802;7.132;2023-04-19T00:05:06;101933.56;;;13.27;100.00
9419;BME280;4748;50.802;7.132;2023-04-19T00:07:32;101926.72;;;13.31;100.00
9419;BME280;4748;50.802;7.132;2023-04-19T00:09:57;101920.53;;;13.25;100.00
9419;BME280;4748;50.802;7.132;2023-04-19T00:12:22;101924.44;;;13.22;100.00
9419;BME280;4748;50.802;7.132;2023-04-19T00:14:48;101932.91;;;13.19;100.00
9419;BME280;4748;50.802;7.132;2023-04-19T00:17:13;101927.53;;;13.19;100.00
9419;BME280;4748;50.802;7.132;2023-04-19T00:19:38;101928.78;;;13.23;100.00
9419;BME280;4748;50.802;7.132;2023-04-19T00:22:04;101926.91;;;13.17;100.00
9419;BME280;4748;50.802;7.132;2023-04-19T00:24:29;101929.59;;;13.17;100.00
9419;BME280;4748;50.802;7.132;2023-04-19T00:26:55;101920.09;;;13.21;100.00
9419;BME280;4748;50.802;7.132;2023-04-19T00:29:21;101915.75;;;13.20;100.00
9419;BME280;4748;50.802;7.132;2023-04-19T00:31:46;101911.19;;;13.21;100.00
9419;BME280;4748;50.802;7.132;2023-04-19T00:34:12;101913.25;;;13.25;100.00
9419;BME280;4748;50.802;7.132;2023-04-19T00:36:37;101920.72;;;13.17;100.00
9419;BME280;4748;50.802;7.132;2023-04-19T00:39:02;101914.72;;;13.15;100.00
9419;BME280;4748;50.802;7.132;2023-04-19T00:41:28;101916.75;;;13.13;100.00
9419;BME280;4748;50.802;7.132;2023-04-19T00:43:53;101914.91;;;13.07;100.00
9419;BME280;4748;50.802;7.132;2023-04-19T00:46:19;101912.00;;;12.95;100.00
9419;BME280;4748;50.802;7.132;2023-04-19T00:48:45;101909.53;;;13.00;100.00
9419;BME280;4748;50.802;7.132;2023-04-19T00:51:11;101899.38;;;13.02;100.00
9419;BME280;4748;50.802;7.132;2023-04-19T00:53:37;101912.00;;;13.02;100.00
9419;BME280;4748;50.802;7.132;2023-04-19T00:56:03;101913.66;;;13.03;100.00
9419;BME280;4748;50.802;7.132;2023-04-19T00:58:29;101905.38;;;12.98;100.00
9419;BME280;4748;50.802;7.132;2023-04-19T01:00:56;101904.94;;;12.94;100.00
9419;BME280;4748;50.802;7.132;2023-04-19T01:03:21;101897.72;;;12.95;100.00
9419;BME280;4748;50.802;7.132;2023-04-19T01:05:46;101888.63;;;12.89;100.00
9419;BME280;4748;50.802;7.132;2023-04-19T01:08:13;101889.84;;;12.87;100.00
9419;BME280;4748;50.802;7.132;2023-04-19T01:10:38;101888.56;;;12.83;100.00
9419;BME280;4748;50.802;7.132;2023-04-19T01:13:03;101891.03;;;12.78;100.00
9419;BME280;4748;50.802;7.132;2023-04-19T01:15:29;101888.31;;;12.72;100.00
9419;BME280;4748;50.802;7.132;2023-04-19T01:17:55;101890.38;;;12.57;100.00
9419;BME280;4748;50.802;7.132;2023-04-19T01:20:20;101882.72;;;12.54;100.00
9419;BME280;4748;50.802;7.132;2023-04-19T01:22:46;101889.53;;;12.50;100.00
9419;BME280;4748;50.802;7.132;2023-04-19T01:25:11;101889.06;;;12.46;100.00
9419;BME280;4748;50.802;7.132;2023-04-19T01:27:37;101884.31;;;12.42;100.00
9419;BME280;4748;50.802;7.132;2023-04-19T01:30:02;101883.09;;;12.38;100.00
9419;BME280;4748;50.802;7.132;2023-04-19T01:32:28;101880.16;;;12.33;100.00
9419;BME280;4748;50.802;7.132;2023-04-19T01:34:53;101880.53;;;12.23;100.00
9419;BME280;4748;50.802;7.132;2023-04-19T01:37:18;101881.78;;;12.21;100.00
9419;BME280;4748;50.802;7.132;2023-04-19T01:39:44;101876.81;;;12.18;100.00
9419;BME280;4748;50.802;7.132;2023-04-19T01:42:09;101878.84;;;12.16;100.00
9419;BME280;4748;50.802;7.132;2023-04-19T01:44:35;101873.47;;;12.16;100.00
9419;BME280;4748;50.802;7.132;2023-04-19T01:47:00;101874.91;;;12.12;100.00
9419;BME280;4748;50.802;7.132;2023-04-19T01:49:25;101868.50;;;12.13;100.00
9419;BME280;4748;50.802;7.132;2023-04-19T01:51:50;101867.25;;;12.09;100.00
9419;BME280;4748;50.802;7.132;2023-04-19T01:54:16;101862.72;;;12.10;100.00
9419;BME280;4748;50.802;7.132;2023-04-19T01:56:41;101867.66;;;12.06;100.00
9419;BME280;4748;50.802;7.132;2023-04-19T01:59:07;101860.00;;;12.03;100.00
9419;BME280;4748;50.802;7.132;2023-04-19T02:01:32;101857.09;;;11.98;100.00
9419;BME280;4748;50.802;7.132;2023-04-19T02:04:03;101863.44;;;11.91;100.00
9419;BME280;4748;50.802;7.132;2023-04-19T02:06:28;101869.84;;;11.90;100.00
9419;BME280;4748;50.802;7.132;2023-04-19T02:08:54;101859.94;;;11.90;100.00
9419;BME280;4748;50.802;7.132;2023-04-19T02:11:19;101859.13;;;11.90;100.00
9419;BME280;4748;50.802;7.132;2023-04-19T02:13:45;101858.06;;;11.91;100.00
9419;BME280;4748;50.802;7.132;2023-04-19T02:16:10;101851.47;;;11.93;100.00
9419;BME280;4748;50.802;7.132;2023-04-19T02:18:36;101859.38;;;12.01;100.00
9419;BME280;4748;50.802;7.132;2023-04-19T02:21:05;101845.31;;;11.99;100.00
9419;BME280;4748;50.802;7.132;2023-04-19T02:23:31;101852.75;;;12.04;100.00
9419;BME280;4748;50.802;7.132;2023-04-19T02:25:56;101849.09;;;12.11;100.00
9419;BME280;4748;50.802;7.132;2023-04-19T02:28:21;101842.06;;;12.17;100.00
9419;BME280;4748;50.802;7.132;2023-04-19T02:30:47;101849.31;;;12.16;100.00
9419;BME280;4748;50.802;7.132;2023-04-19T02:33:13;101845.41;;;12.19;100.00
9419;BME280;4748;50.802;7.132;2023-04-19T02:35:39;101848.09;;;12.19;100.00
9419;BME280;4748;50.802;7.132;2023-04-19T02:38:04;101857.81;;;12.20;100.00
9419;BME280;4748;50.802;7.132;2023-04-19T02:40:30;101851.19;;;12.16;100.00
9419;BME280;4748;50.802;7.132;2023-04-19T02:42:55;101853.41;;;12.12;100.00
9419;BME280;4748;50.802;7.132;2023-04-19T02:45:21;101855.69;;;12.15;100.00
9419;BME280;4748;50.802;7.132;2023-04-19T02:47:46;101848.28;;;12.17;100.00
9419;BME280;4748;50.802;7.132;2023-04-19T02:50:13;101855.94;;;12.20;100.00
9419;BME280;4748;50.802;7.132;2023-04-19T02:52:38;101850.97;;;12.17;100.00
9419;BME280;4748;50.802;7.132;2023-04-19T02:55:05;101847.91;;;12.20;100.00
9419;BME280;4748;50.802;7.132;2023-04-19T02:57:30;101842.13;;;12.23;100.00
9419;BME280;4748;50.802;7.132;2023-04-19T02:59:56;101856.16;;;12.25;100.00
9419;BME280;4748;50.802;7.132;2023-04-19T03:02:21;101844.41;;;12.26;100.00
9419;BME280;4748;50.802;7.132;2023-04-19T03:04:46;101840.44;;;12.22;100.00
9419;BME280;4748;50.802;7.132;2023-04-19T03:07:12;101843.56;;;12.25;100.00
9419;BME280;4748;50.802;7.132;2023-04-19T03:09:38;101829.94;;;12.27;100.00
9419;BME280;4748;50.802;7.132;2023-04-19T03:12:04;101836.78;;;12.29;100.00
9419;BME280;4748;50.802;7.132;2023-04-19T03:14:29;101831.38;;;12.23;100.00
9419;BME280;4748;50.802;7.132;2023-04-19T03:16:55;101835.53;;;12.25;100.00
9419;BME280;4748;50.802;7.132;2023-04-19T03:19:20;101832.19;;;12.23;100.00
9419;BME280;4748;50.802;7.132;2023-04-19T03:21:45;101829.09;;;12.26;100.00
9419;BME280;4748;50.802;7.132;2023-04-19T03:24:11;101836.59;;;12.31;100.00
9419;BME280;4748;50.802;7.132;2023-04-19T03:26:36;101832.22;;;12.30;100.00
9419;BME280;4748;50.802;7.132;2023-04-19T03:29:01;101831.81;;;12.33;100.00
9419;BME280;4748;50.802;7.132;2023-04-19T03:31:27;101831.00;;;12.39;100.00
9419;BME280;4748;50.802;7.132;2023-04-19T03:33:52;101834.75;;;12.38;100.00
9419;BME280;4748;50.802;7.132;2023-04-19T03:36:18;101830.59;;;12.35;100.00
9419;BME280;4748;50.802;7.132;2023-04-19T03:38:43;101830.59;;;12.42;100.00
9419;BME280;4748;50.802;7.132;2023-04-19T03:41:20;101823.59;;;12.41;100.00
9419;BME280;4748;50.802;7.132;2023-04-19T03:43:45;101820.25;;;12.32;100.00
9419;BME280;4748;50.802;7.132;2023-04-19T03:46:11;101820.06;;;12.34;100.00
9419;BME280;4748;50.802;7.132;2023-04-19T03:48:36;101818.19;;;12.34;100.00
9419;BME280;4748;50.802;7.132;2023-04-19T03:51:01;101808.91;;;12.37;100.00
9419;BME280;4748;50.802;7.132;2023-04-19T03:53:27;101818.44;;;12.39;100.00
9419;BME280;4748;50.802;7.132;2023-04-19T03:55:52;101807.03;;;12.37;100.00
9419;BME280;4748;50.802;7.132;2023-04-19T03:58:18;101823.16;;;12.37;100.00
9419;BME280;4748;50.802;7.132;2023-04-19T04:00:43;101810.94;;;12.35;100.00
9419;BME280;4748;50.802;7.132;2023-04-19T04:03:08;101815.50;;;12.34;100.00
9419;BME280;4748;50.802;7.132;2023-04-19T04:05:34;101818.81;;;12.36;100.00
9419;BME280;4748;50.802;7.132;2023-04-19T04:07:59;101822.94;;;12.32;100.00
9419;BME280;4748;50.802;7.132;2023-04-19T04:10:25;101817.38;;;12.34;100.00
9419;BME280;4748;50.802;7.132;2023-04-19T04:12:50;101822.94;;;12.39;100.00
9419;BME280;4748;50.802;7.132;2023-04-19T04:15:16;101827.06;;;12.35;100.00
9419;BME280;4748;50.802;7.132;2023-04-19T04:17:41;101817.38;;;12.34;100.00
9419;BME280;4748;50.802;7.132;2023-04-19T04:20:07;101821.31;;;12.38;100.00
9419;BME280;4748;50.802;7.132;2023-04-19T04:22:33;101826.69;;;12.38;100.00
9419;BME280;4748;50.802;7.132;2023-04-19T04:24:58;101822.13;;;12.38;100.00
9419;BME280;4748;50.802;7.132;2023-04-19T04:27:25;101824.00;;;12.38;100.00
9419;BME280;4748;50.802;7.132;2023-04-19T04:29:50;101822.34;;;12.37;100.00
9419;BME280;4748;50.802;7.132;2023-04-19T04:32:16;101822.53;;;12.35;100.00
9419;BME280;4748;50.802;7.132;2023-04-19T04:34:42;101827.06;;;12.35;100.00
9419;BME280;4748;50.802;7.132;2023-04-19T04:37:08;101823.16;;;12.31;100.00
9419;BME280;4748;50.802;7.132;2023-04-19T04:39:33;101818.56;;;12.25;100.00
9419;BME280;4748;50.802;7.132;2023-04-19T04:42:03;101824.19;;;12.30;100.00
9419;BME280;4748;50.802;7.132;2023-04-19T04:44:29;101832.22;;;12.30;100.00
9419;BME280;4748;50.802;7.132;2023-04-19T04:46:54;101823.16;;;12.31;100.00
9419;BME280;4748;50.802;7.132;2023-04-19T04:49:20;101822.31;;;12.24;100.00
9419;BME280;4748;50.802;7.132;2023-04-19T04:51:45;101823.72;;;12.26;100.00
9419;BME280;4748;50.802;7.132;2023-04-19T04:54:11;101818.19;;;12.28;100.00
9419;BME280;4748;50.802;7.132;2023-04-19T04:56:36;101813.19;;;12.25;100.00
9419;BME280;4748;50.802;7.132;2023-04-19T04:59:02;101819.41;;;12.25;100.00
9419;BME280;4748;50.802;7.132;2023-04-19T05:01:27;101813.00;;;12.26;100.00
9419;BME280;4748;50.802;7.132;2023-04-19T05:03:52;101816.94;;;12.30;100.00
9419;BME280;4748;50.802;7.132;2023-04-19T05:06:18;101808.47;;;12.27;100.00
9419;BME280;4748;50.802;7.132;2023-04-19T05:08:44;101815.88;;;12.25;100.00
9419;BME280;4748;50.802;7.132;2023-04-19T05:11:09;101817.34;;;12.27;100.00
9419;BME280;4748;50.802;7.132;2023-04-19T05:13:35;101815.09;;;12.31;100.00
9419;BME280;4748;50.802;7.132;2023-04-19T05:16:00;101809.94;;;12.29;100.00
9419;BME280;4748;50.802;7.132;2023-04-19T05:18:26;101813.84;;;12.27;100.00
9419;BME280;4748;50.802;7.132;2023-04-19T05:20:51;101816.53;;;12.27;100.00
9419;BME280;4748;50.802;7.132;2023-04-19T05:23:16;101813.63;;;12.35;100.00
9419;BME280;4748;50.802;7.132;2023-04-19T05:25:42;101800.22;;;12.35;100.00
9419;BME280;4748;50.802;7.132;2023-04-19T05:28:08;101819.44;;;12.38;100.00
9419;BME280;4748;50.802;7.132;2023-04-19T05:30:33;101815.31;;;12.36;100.00
9419;BME280;4748;50.802;7.132;2023-04-19T05:32:59;101822.13;;;12.38;100.00
9419;BME280;4748;50.802;7.132;2023-04-19T05:35:24;101814.28;;;12.37;100.00
9419;BME280;4748;50.802;7.132;2023-04-19T05:37:50;101813.47;;;12.43;100.00
9419;BME280;4748;50.802;7.132;2023-04-19T05:40:15;101819.03;;;12.41;100.00
9419;BME280;4748;50.802;7.132;2023-04-19T05:42:41;101814.06;;;12.45;100.00
9419;BME280;4748;50.802;7.132;2023-04-19T05:45:08;101812.44;;;12.50;100.00
9419;BME280;4748;50.802;7.132;2023-04-19T05:47:33;101801.91;;;12.49;100.00
9419;BME280;4748;50.802;7.132;2023-04-19T05:49:58;101799.66;;;12.52;100.00
9419;BME280;4748;50.802;7.132;2023-04-19T05:52:24;101798.41;;;12.55;100.00
9419;BME280;4748;50.802;7.132;2023-04-19T05:54:49;101798.41;;;12.61;100.00
9419;BME280;4748;50.802;7.132;2023-04-19T05:57:14;101799.44;;;12.54;100.00
9419;BME280;4748;50.802;7.132;2023-04-19T05:59:40;101795.13;;;12.59;100.00
9419;BME280;4748;50.802;7.132;2023-04-19T06:02:06;101802.56;;;12.64;100.00
9419;BME280;4748;50.802;7.132;2023-04-19T06:04:31;101799.22;;;12.62;100.00
9419;BME280;4748;50.802;7.132;2023-04-19T06:06:57;101794.91;;;12.61;100.00
9419;BME280;4748;50.802;7.132;2023-04-19T06:09:22;101805.25;;;12.64;100.00
9419;BME280;4748;50.802;7.132;2023-04-19T06:11:48;101809.16;;;12.61;100.00
9419;BME280;4748;50.802;7.132;2023-04-19T06:14:13;101809.34;;;12.66;100.00
9419;BME280;4748;50.802;7.132;2023-04-19T06:16:39;101816.19;;;12.69;100.00
9419;BME280;4748;50.802;7.132;2023-04-19T06:19:04;101811.66;;;12.69;100.00
9419;BME280;4748;50.802;7.132;2023-04-19T06:21:31;101809.38;;;12.60;100.00
9419;BME280;4748;50.802;7.132;2023-04-19T06:23:57;101810.41;;;12.65;100.00
9419;BME280;4748;50.802;7.132;2023-04-19T06:26:22;101811.25;;;12.59;100.00
9419;BME280;4748;50.802;7.132;2023-04-19T06:28:48;101814.94;;;12.65;100.00
9419;BME280;4748;50.802;7.132;2023-04-19T06:31:13;101818.28;;;12.67;100.00
9419;BME280;4748;50.802;7.132;2023-04-19T06:33:38;101809.38;;;12.73;100.00
9419;BME280;4748;50.802;7.132;2023-04-19T06:36:04;101803.19;;;12.78;100.00
9419;BME280;4748;50.802;7.132;2023-04-19T06:38:30;101810.22;;;12.79;100.00
9419;BME280;4748;50.802;7.132;2023-04-19T06:40:55;101807.94;;;12.83;100.00
9419;BME280;4748;50.802;7.132;2023-04-19T06:43:20;101809.00;;;12.88;100.00
9419;BME280;4748;50.802;7.132;2023-04-19T06:45:46;101806.34;;;12.95;100.00
9419;BME280;4748;50.802;7.132;2023-04-19T06:48:12;101808.81;;;12.90;100.00
9419;BME280;4748;50.802;7.132;2023-04-19T06:50:37;101812.13;;;12.98;100.00
9419;BME280;4748;50.802;7.132;2023-04-19T06:53:03;101811.28;;;13.04;100.00
9419;BME280;4748;50.802;7.132;2023-04-19T06:55:28;101814.78;;;13.11;100.00
9419;BME280;4748;50.802;7.132;2023-04-19T06:57:53;101803.03;;;13.19;100.00
9419;BME280;4748;50.802;7.132;2023-04-19T07:00:21;101809.00;;;13.21;100.00
9419;BME280;4748;50.802;7.132;2023-04-19T07:02:48;101806.31;;;13.21;100.00
9419;BME280;4748;50.802;7.132;2023-04-19T07:05:13;101799.69;;;13.23;100.00
9419;BME280;4748;50.802;7.132;2023-04-19T07:07:39;101803.41;;;13.22;100.00
9419;BME280;4748;50.802;7.132;2023-04-19T07:10:07;101802.38;;;13.36;100.00
9419;BME280;4748;50.802;7.132;2023-04-19T07:12:32;101795.94;;;13.43;100.00
9419;BME280;4748;50.802;7.132;2023-04-19T07:14:58;101795.25;;;13.61;100.00
9419;BME280;4748;50.802;7.132;2023-04-19T07:17:23;101795.94;;;13.50;100.00
9419;BME280;4748;50.802;7.132;2023-04-19T07:19:48;101805.84;;;13.49;100.00
9419;BME280;4748;50.802;7.132;2023-04-19T07:22:14;101790.69;;;13.74;100.00
9419;BME280;4748;50.802;7.132;2023-04-19T07:24:39;101787.94;;;13.87;100.00
9419;BME280;4748;50.802;7.132;2023-04-19T07:27:06;101794.06;;;14.13;100.00
9419;BME280;4748;50.802;7.132;2023-04-19T07:29:33;101786.59;;;14.15;100.00
9419;BME280;4748;50.802;7.132;2023-04-19T07:31:59;101785.34;;;14.55;100.00
9419;BME280;4748;50.802;7.132;2023-04-19T07:34:26;101794.13;;;14.68;100.00
9419;BME280;4748;50.802;7.132;2023-04-19T07:36:51;101787.50;;;14.95;100.00
9419;BME280;4748;50.802;7.132;2023-04-19T07:39:16;101780.47;;;15.18;100.00
9419;BME280;4748;50.802;7.132;2023-04-19T07:41:43;101791.88;;;15.14;100.00
9419;BME280;4748;50.802;7.132;2023-04-19T07:44:09;101781.00;;;15.02;100.00
9419;BME280;4748;50.802;7.132;2023-04-19T07:46:35;101797.19;;;15.02;100.00
9419;BME280;4748;50.802;7.132;2023-04-19T07:49:01;101777.59;;;15.13;100.00
9419;BME280;4748;50.802;7.132;2023-04-19T07:51:26;101786.63;;;15.25;100.00
9419;BME280;4748;50.802;7.132;2023-04-19T07:53:52;101780.69;;;15.77;100.00
9419;BME280;4748;50.802;7.132;2023-04-19T07:56:17;101782.72;;;16.28;100.00
9419;BME280;4748;50.802;7.132;2023-04-19T07:58:44;101778.72;;;16.60;100.00
9419;BME280;4748;50.802;7.132;2023-04-19T08:01:10;101778.69;;;17.00;100.00
9419;BME280;4748;50.802;7.132;2023-04-19T08:03:35;101780.78;;;16.76;100.00
9419;BME280;4748;50.802;7.132;2023-04-19T08:06:05;101774.78;;;16.96;100.00
9419;BME280;4748;50.802;7.132;2023-04-19T08:08:35;101775.50;;;17.03;100.00
9419;BME280;4748;50.802;7.132;2023-04-19T08:11:00;101763.03;;;17.14;100.00
9419;BME280;4748;50.802;7.132;2023-04-19T08:13:27;101758.25;;;17.27;100.00
9419;BME280;4748;50.802;7.132;2023-04-19T08:15:52;101761.28;;;17.08;100.00
9419;BME280;4748;50.802;7.132;2023-04-19T08:18:18;101781.03;;;16.86;100.00
9419;BME280;4748;50.802;7.132;2023-04-19T08:20:45;101778.75;;;16.83;100.00
9419;BME280;4748;50.802;7.132;2023-04-19T08:23:10;101768.38;;;16.57;100.00
9419;BME280;4748;50.802;7.132;2023-04-19T08:25:37;101773.25;;;16.37;100.00
9419;BME280;4748;50.802;7.132;2023-04-19T08:28:03;101764.88;;;16.68;100.00
9419;BME280;4748;50.802;7.132;2023-04-19T08:30:28;101771.22;;;16.62;100.00
9419;BME280;4748;50.802;7.132;2023-04-19T08:32:54;101762.16;;;16.68;100.00
9419;BME280;4748;50.802;7.132;2023-04-19T08:35:20;101764.06;;;16.67;100.00
9419;BME280;4748;50.802;7.132;2023-04-19T08:37:45;101757.50;;;16.86;100.00
9419;BME280;4748;50.802;7.132;2023-04-19T08:40:12;101758.31;;;16.86;100.00
9419;BME280;4748;50.802;7.132;2023-04-19T08:42:38;101745.75;;;17.15;100.00
9419;BME280;4748;50.802;7.132;2023-04-19T08:45:04;101748.44;;;17.03;99.97
9419;BME280;4748;50.802;7.132;2023-04-19T08:47:32;101742.78;;;17.16;94.43
9419;BME280;4748;50.802;7.132;2023-04-19T08:49:59;101732.47;;;17.36;96.25
9419;BME280;4748;50.802;7.132;2023-04-19T08:52:26;101733.16;;;17.43;95.23
9419;BME280;4748;50.802;7.132;2023-04-19T08:54:53;101732.69;;;17.46;94.58
9419;BME280;4748;50.802;7.132;2023-04-19T08:57:18;101720.97;;;17.68;94.83
9419;BME280;4748;50.802;7.132;2023-04-19T08:59:44;101734.00;;;17.83;94.16
9419;BME280;4748;50.802;7.132;2023-04-19T09:02:13;101728.03;;;17.81;90.00
9419;BME280;4748;50.802;7.132;2023-04-19T09:04:38;101733.84;;;17.50;91.38
9419;BME280;4748;50.802;7.132;2023-04-19T09:07:03;101723.16;;;17.32;91.91
9419;BME280;4748;50.802;7.132;2023-04-19T09:09:29;101728.69;;;17.03;92.49
9419;BME280;4748;50.802;7.132;2023-04-19T09:11:55;101714.19;;;17.20;92.85
9419;BME280;4748;50.802;7.132;2023-04-19T09:14:23;101711.84;;;17.46;91.75
9419;BME280;4748;50.802;7.132;2023-04-19T09:16:49;101711.03;;;17.35;88.50
9419;BME280;4748;50.802;7.132;2023-04-19T09:19:16;101705.97;;;17.49;87.53
9419;BME280;4748;50.802;7.132;2023-04-19T09:21:41;101702.88;;;17.46;87.96
9419;BME280;4748;50.802;7.132;2023-04-19T09:24:07;101706.34;;;17.81;85.89
9419;BME280;4748;50.802;7.132;2023-04-19T09:26:33;101707.47;;;17.96;82.64
9419;BME280;4748;50.802;7.132;2023-04-19T09:31:32;101704.75;;;17.96;83.25
9419;BME280;4748;50.802;7.132;2023-04-19T09:34:19;101702.47;;;17.77;65.76
9419;BME280;4748;50.802;7.132;2023-04-19T09:36:45;101684.63;;;17.92;81.92
9419;BME280;4748;50.802;7.132;2023-04-19T09:39:12;101689.22;;;18.19;80.74
9419;BME280;4748;50.802;7.132;2023-04-19T09:41:51;101684.91;;;17.79;59.92
9419;BME280;4748;50.802;7.132;2023-04-19T09:44:17;101679.78;;;18.22;78.13
9419;BME280;4748;50.802;7.132;2023-04-19T09:46:43;101683.31;;;18.22;72.53
9419;BME280;4748;50.802;7.132;2023-04-19T09:51:47;101678.53;;;17.85;65.32
9419;BME280;4748;50.802;7.132;2023-04-19T09:54:15;101670.00;;;18.21;75.16
9419;BME280;4748;50.802;7.132;2023-04-19T09:56:41;101677.09;;;18.10;68.93
9419;BME280;4748;50.802;7.132;2023-04-19T09:59:08;101668.78;;;18.00;67.77
9419;BME280;4748;50.802;7.132;2023-04-19T10:01:38;101682.00;;;17.69;62.95
9419;BME280;4748;50.802;7.132;2023-04-19T10:04:04;101698.56;;;17.45;61.13
9419;BME280;4748;50.802;7.132;2023-04-19T10:06:31;101677.03;;;17.16;65.02
9419;BME280;4748;50.802;7.132;2023-04-19T10:08:59;101669.84;;;17.21;59.37
9419;BME280;4748;50.802;7.132;2023-04-19T10:11:31;101670.75;;;17.49;61.03
9419;BME280;4748;50.802;7.132;2023-04-19T10:14:03;101674.19;;;17.34;60.96
9419;BME280;4748;50.802;7.132;2023-04-19T10:16:29;101682.94;;;17.24;64.39
9419;BME280;4748;50.802;7.132;2023-04-19T10:18:56;101678.38;;;17.64;71.21
9419;BME280;4748;50.802;7.132;2023-04-19T10:21:22;101680.38;;;17.57;66.51
9419;BME280;4748;50.802;7.132;2023-04-19T10:23:50;101657.91;;;17.56;67.75
9419;BME280;4748;50.802;7.132;2023-04-19T10:26:15;101663.03;;;17.30;67.27
9419;BME280;4748;50.802;7.132;2023-04-19T10:28:41;101684.31;;;17.38;70.38
9419;BME280;4748;50.802;7.132;2023-04-19T10:31:10;101664.31;;;17.28;64.80
9419;BME280;4748;50.802;7.132;2023-04-19T10:33:37;101658.88;;;17.39;72.53
9419;BME280;4748;50.802;7.132;2023-04-19T10:36:03;101654.53;;;17.38;69.16
9419;BME280;4748;50.802;7.132;2023-04-19T10:38:41;101658.47;;;17.58;66.31
9419;BME280;4748;50.802;7.132;2023-04-19T10:41:14;101660.84;;;17.55;68.39
9419;BME280;4748;50.802;7.132;2023-04-19T10:43:43;101650.97;;;17.77;69.61
9419;BME280;4748;50.802;7.132;2023-04-19T10:53:59;101638.00;;;17.51;64.54
9419;BME280;4748;50.802;7.132;2023-04-19T11:04:05;101624.13;;;17.75;68.77
9419;BME280;4748;50.802;7.132;2023-04-19T11:06:32;101617.75;;;17.81;68.44
9419;BME280;4748;50.802;7.132;2023-04-19T11:08:58;101621.66;;;17.74;69.77
9419;BME280;4748;50.802;7.132;2023-04-19T11:11:25;101608.56;;;17.98;70.23
9419;BME280;4748;50.802;7.132;2023-04-19T11:13:50;101618.78;;;17.80;69.09
9419;BME280;4748;50.802;7.132;2023-04-19T11:16:15;101612.44;;;18.30;67.56
9419;BME280;4748;50.802;7.132;2023-04-19T11:18:41;101603.75;;;18.00;67.09
9419;BME280;4748;50.802;7.132;2023-04-19T11:21:12;101607.09;;;17.91;58.62
9419;BME280;4748;50.802;7.132;2023-04-19T11:23:38;101603.63;;;17.95;67.75
9419;BME280;4748;50.802;7.132;2023-04-19T11:26:03;101591.63;;;17.75;65.79
9419;BME280;4748;50.802;7.132;2023-04-19T11:28:28;101601.66;;;17.91;65.37
9419;BME280;4748;50.802;7.132;2023-04-19T11:30:54;101601.66;;;17.91;66.02
9419;BME280;4748;50.802;7.132;2023-04-19T11:33:20;101591.91;;;18.06;64.48
9419;BME280;4748;50.802;7.132;2023-04-19T11:35:49;101580.91;;;17.96;62.74
9419;BME280;4748;50.802;7.132;2023-04-19T11:38:14;101578.34;;;17.90;63.29
9419;BME280;4748;50.802;7.132;2023-04-19T11:40:40;101580.13;;;17.85;61.28
9419;BME280;4748;50.802;7.132;2023-04-19T11:43:06;101582.97;;;17.62;58.65
9419;BME280;4748;50.802;7.132;2023-04-19T11:45:33;101578.81;;;17.71;55.94
9419;BME280;4748;50.802;7.132;2023-04-19T11:48:00;101571.94;;;18.12;59.42
9419;BME280;4748;50.802;7.132;2023-04-19T11:50:36;101556.34;;;18.03;51.91
9419;BME280;4748;50.802;7.132;2023-04-19T11:53:28;101564.66;;;17.69;47.57
9419;BME280;4748;50.802;7.132;2023-04-19T11:55:56;101571.06;;;17.63;51.10
9419;BME280;4748;50.802;7.132;2023-04-19T11:58:22;101570.00;;;17.64;50.19
9419;BME280;4748;50.802;7.132;2023-04-19T12:00:48;101567.31;;;17.80;51.23
9419;BME280;4748;50.802;7.132;2023-04-19T12:03:13;101605.84;;;17.54;47.27
9419;BME280;4748;50.802;7.132;2023-04-19T12:05:51;101547.38;;;17.42;42.78
9419;BME280;4748;50.802;7.132;2023-04-19T12:08:16;101562.81;;;17.41;45.50
9419;BME280;4748;50.802;7.132;2023-04-19T12:10:54;101553.84;;;17.69;43.05
9419;BME280;4748;50.802;7.132;2023-04-19T12:13:20;101555.88;;;17.62;46.07
9419;BME280;4748;50.802;7.132;2023-04-19T12:15:45;101566.25;;;17.65;44.44
9419;BME280;4748;50.802;7.132;2023-04-19T12:18:13;101550.31;;;17.68;44.97
9419;BME280;4748;50.802;7.132;2023-04-19T12:20:45;101545.22;;;17.72;42.20
9419;BME280;4748;50.802;7.132;2023-04-19T12:23:11;101546.31;;;17.71;44.32
9419;BME280;4748;50.802;7.132;2023-04-19T12:25:38;101540.03;;;17.70;41.77
9419;BME280;4748;50.802;7.132;2023-04-19T12:28:05;101521.69;;;17.72;42.97
9419;BME280;4748;50.802;7.132;2023-04-19T12:30:30;101515.34;;;17.67;43.93
9419;BME280;4748;50.802;7.132;2023-04-19T12:32:56;101538.25;;;17.59;44.97
9419;BME280;4748;50.802;7.132;2023-04-19T12:35:24;101534.81;;;17.80;44.16
9419;BME280;4748;50.802;7.132;2023-04-19T12:37:51;101531.81;;;17.49;41.38
9419;BME280;4748;50.802;7.132;2023-04-19T12:40:16;101512.78;;;17.44;39.88
9419;BME280;4748;50.802;7.132;2023-04-19T12:42:42;101536.53;;;17.42;41.26
9419;BME280;4748;50.802;7.132;2023-04-19T12:45:08;101532.09;;;17.36;40.07
9419;BME280;4748;50.802;7.132;2023-04-19T12:47:33;101527.34;;;17.27;40.03
9419;BME280;4748;50.802;7.132;2023-04-19T12:49:59;101538.00;;;17.33;42.22
9419;BME280;4748;50.802;7.132;2023-04-19T12:52:24;101529.41;;;17.36;41.51
9419;BME280;4748;50.802;7.132;2023-04-19T12:54:50;101527.91;;;17.17;40.31
9419;BME280;4748;50.802;7.132;2023-04-19T12:57:15;101525.53;;;17.32;40.26
9419;BME280;4748;50.802;7.132;2023-04-19T12:59:41;101528.53;;;17.47;40.94
9419;BME280;4748;50.802;7.132;2023-04-19T13:02:06;101519.34;;;17.48;40.25
9419;BME280;4748;50.802;7.132;2023-04-19T13:04:31;101518.50;;;17.31;39.26
9419;BME280;4748;50.802;7.132;2023-04-19T13:06:57;101518.66;;;17.41;40.91
9419;BME280;4748;50.802;7.132;2023-04-19T13:09:22;101514.25;;;17.35;37.55
9419;BME280;4748;50.802;7.132;2023-04-19T13:11:47;101505.31;;;17.51;40.27
9419;BME280;4748;50.802;7.132;2023-04-19T13:14:13;101506.75;;;17.42;37.90
9419;BME280;4748;50.802;7.132;2023-04-19T13:16:38;101504.69;;;17.33;38.32